sensor_id;sensor_type;location;lat;lon;timestamp;temperature;humidity
66752;SHT31;53663;42.676;23.238;2022-12-10T00:00:37;8.29;83.77
66752;SHT31;53663;42.676;23.238;2022-12-10T00:03:03;8.39;83.77
66752;SHT31;53663;42.676;23.238;2022-12-10T00:05:28;8.50;82.85
66752;SHT31;53663;42.676;23.238;2022-12-10T00:07:54;8.46;83.65
66752;SHT31;53663;42.676;23.238;2022-12-10T00:10:19;8.36;84.14
66752;SHT31;53663;42.676;23.238;2022-12-10T00:12:45;8.39;84.21
66752;SHT31;53663;42.676;23.238;2022-12-10T00:15:10;8.43;84.43
66752;SHT31;53663;42.676;23.238;2022-12-10T00:17:36;8.52;84.06
66752;SHT31;53663;42.676;23.238;2022-12-10T00:20:02;8.46;83.52
66752;SHT31;53663;42.676;23.238;2022-12-10T00:22:28;8.43;83.84
66752;SHT31;53663;42.676;23.238;2022-12-10T00:24:53;8.52;84.03
66752;SHT31;53663;42.676;23.238;2022-12-10T00:27:19;8.57;83.92
66752;SHT31;53663;42.676;23.238;2022-12-10T00:29:44;8.66;83.23
66752;SHT31;53663;42.676;23.238;2022-12-10T00:32:10;8.70;82.98
66752;SHT31;53663;42.676;23.238;2022-12-10T00:34:35;8.76;82.95
66752;SHT31;53663;42.676;23.238;2022-12-10T00:37:01;8.53;83.45
66752;SHT31;53663;42.676;23.238;2022-12-10T00:39:27;8.60;83.65
66752;SHT31;53663;42.676;23.238;2022-12-10T00:41:52;8.67;83.71
66752;SHT31;53663;42.676;23.238;2022-12-10T00:44:19;8.72;83.74
66752;SHT31;53663;42.676;23.238;2022-12-10T00:46:45;8.66;83.70
66752;SHT31;53663;42.676;23.238;2022-12-10T00:49:11;8.70;83.24
66752;SHT31;53663;42.676;23.238;2022-12-10T00:51:37;8.74;83.80
66752;SHT31;53663;42.676;23.238;2022-12-10T00:54:02;8.67;83.73
66752;SHT31;53663;42.676;23.238;2022-12-10T00:56:30;8.76;83.40
66752;SHT31;53663;42.676;23.238;2022-12-10T00:58:56;8.76;83.91
66752;SHT31;53663;42.676;23.238;2022-12-10T01:04:02;8.76;83.99
66752;SHT31;53663;42.676;23.238;2022-12-10T01:06:33;8.80;83.69
66752;SHT31;53663;42.676;23.238;2022-12-10T01:09:03;8.80;84.18
66752;SHT31;53663;42.676;23.238;2022-12-10T01:11:31;8.85;83.98
66752;SHT31;53663;42.676;23.238;2022-12-10T01:13:58;8.77;84.11
66752;SHT31;53663;42.676;23.238;2022-12-10T01:16:24;8.84;83.47
66752;SHT31;53663;42.676;23.238;2022-12-10T01:18:56;8.83;83.95
66752;SHT31;53663;42.676;23.238;2022-12-10T01:21:23;8.79;83.90
66752;SHT31;53663;42.676;23.238;2022-12-10T01:23:50;8.77;84.26
66752;SHT31;53663;42.676;23.238;2022-12-10T01:26:22;8.72;84.59
66752;SHT31;53663;42.676;23.238;2022-12-10T01:28:48;8.69;84.61
66752;SHT31;53663;42.676;23.238;2022-12-10T01:31:22;8.73;84.88
66752;SHT31;53663;42.676;23.238;2022-12-10T01:33:48;8.77;84.77
66752;SHT31;53663;42.676;23.238;2022-12-10T01:36:17;8.88;83.70
66752;SHT31;53663;42.676;23.238;2022-12-10T01:38:44;8.88;84.31
66752;SHT31;53663;42.676;23.238;2022-12-10T01:41:16;8.90;84.46
66752;SHT31;53663;42.676;23.238;2022-12-10T01:46:19;8.96;84.41
66752;SHT31;53663;42.676;23.238;2022-12-10T01:48:45;8.96;84.74
66752;SHT31;53663;42.676;23.238;2022-12-10T01:51:12;8.96;83.88
66752;SHT31;53663;42.676;23.238;2022-12-10T01:53:38;8.93;84.23
66752;SHT31;53663;42.676;23.238;2022-12-10T01:56:05;8.93;84.29
66752;SHT31;53663;42.676;23.238;2022-12-10T01:58:32;8.93;83.94
66752;SHT31;53663;42.676;23.238;2022-12-10T02:01:26;8.94;84.05
66752;SHT31;53663;42.676;23.238;2022-12-10T02:06:45;9.05;83.96
66752;SHT31;53663;42.676;23.238;2022-12-10T02:12:11;9.11;83.45
66752;SHT31;53663;42.676;23.238;2022-12-10T02:14:56;8.99;84.20
66752;SHT31;53663;42.676;23.238;2022-12-10T02:17:36;8.96;84.35
66752;SHT31;53663;42.676;23.238;2022-12-10T02:20:19;8.93;84.49
66752;SHT31;53663;42.676;23.238;2022-12-10T02:22:54;9.05;83.65
66752;SHT31;53663;42.676;23.238;2022-12-10T02:25:27;8.93;83.91
66752;SHT31;53663;42.676;23.238;2022-12-10T02:30:40;8.94;84.55
66752;SHT31;53663;42.676;23.238;2022-12-10T02:33:08;9.03;84.77
66752;SHT31;53663;42.676;23.238;2022-12-10T02:35:36;9.01;84.64
66752;SHT31;53663;42.676;23.238;2022-12-10T02:38:18;9.10;84.48
66752;SHT31;53663;42.676;23.238;2022-12-10T02:40:50;9.11;83.91
66752;SHT31;53663;42.676;23.238;2022-12-10T02:43:18;9.20;84.19
66752;SHT31;53663;42.676;23.238;2022-12-10T02:45:46;9.30;84.95
66752;SHT31;53663;42.676;23.238;2022-12-10T02:48:13;9.56;84.50
66752;SHT31;53663;42.676;23.238;2022-12-10T02:50:41;9.75;84.35
66752;SHT31;53663;42.676;23.238;2022-12-10T02:53:07;9.58;83.35
66752;SHT31;53663;42.676;23.238;2022-12-10T02:56:42;9.59;83.65
66752;SHT31;53663;42.676;23.238;2022-12-10T03:06:52;9.41;83.78
66752;SHT31;53663;42.676;23.238;2022-12-10T03:09:23;9.43;84.19
66752;SHT31;53663;42.676;23.238;2022-12-10T03:11:58;9.70;84.46
66752;SHT31;53663;42.676;23.238;2022-12-10T03:14:28;9.91;84.19
66752;SHT31;53663;42.676;23.238;2022-12-10T03:16:57;10.18;83.04
66752;SHT31;53663;42.676;23.238;2022-12-10T03:19:45;10.24;82.31
66752;SHT31;53663;42.676;23.238;2022-12-10T03:22:14;10.30;82.01
66752;SHT31;53663;42.676;23.238;2022-12-10T03:24:42;10.22;81.61
66752;SHT31;53663;42.676;23.238;2022-12-10T03:27:09;10.22;80.90
66752;SHT31;53663;42.676;23.238;2022-12-10T03:29:48;10.13;81.91
66752;SHT31;53663;42.676;23.238;2022-12-10T03:32:15;10.07;82.59
66752;SHT31;53663;42.676;23.238;2022-12-10T03:34:43;10.08;82.73
66752;SHT31;53663;42.676;23.238;2022-12-10T03:37:10;10.08;81.03
66752;SHT31;53663;42.676;23.238;2022-12-10T03:39:36;10.00;81.70
66752;SHT31;53663;42.676;23.238;2022-12-10T03:42:04;9.90;81.76
66752;SHT31;53663;42.676;23.238;2022-12-10T03:44:31;9.80;82.33
66752;SHT31;53663;42.676;23.238;2022-12-10T03:46:57;9.78;82.74
66752;SHT31;53663;42.676;23.238;2022-12-10T03:49:23;9.82;83.01
66752;SHT31;53663;42.676;23.238;2022-12-10T03:51:49;9.89;82.71
66752;SHT31;53663;42.676;23.238;2022-12-10T03:54:15;9.96;82.15
66752;SHT31;53663;42.676;23.238;2022-12-10T03:56:53;9.86;82.21
66752;SHT31;53663;42.676;23.238;2022-12-10T03:59:18;9.83;82.82
66752;SHT31;53663;42.676;23.238;2022-12-10T04:01:44;9.83;82.61
66752;SHT31;53663;42.676;23.238;2022-12-10T04:04:10;9.89;82.91
66752;SHT31;53663;42.676;23.238;2022-12-10T04:06:37;9.90;83.07
66752;SHT31;53663;42.676;23.238;2022-12-10T04:09:03;9.96;82.79
66752;SHT31;53663;42.676;23.238;2022-12-10T04:11:28;9.99;82.89
66752;SHT31;53663;42.676;23.238;2022-12-10T04:13:54;9.93;83.32
66752;SHT31;53663;42.676;23.238;2022-12-10T04:16:39;9.94;83.45
66752;SHT31;53663;42.676;23.238;2022-12-10T04:19:10;9.96;83.41
66752;SHT31;53663;42.676;23.238;2022-12-10T04:21:38;9.91;83.80
66752;SHT31;53663;42.676;23.238;2022-12-10T04:24:24;9.89;83.99
66752;SHT31;53663;42.676;23.238;2022-12-10T04:27:12;9.90;84.02
66752;SHT31;53663;42.676;23.238;2022-12-10T04:29:38;9.96;84.01
66752;SHT31;53663;42.676;23.238;2022-12-10T04:32:03;10.03;84.08
66752;SHT31;53663;42.676;23.238;2022-12-10T04:34:29;9.97;84.30
66752;SHT31;53663;42.676;23.238;2022-12-10T04:36:57;10.03;84.05
66752;SHT31;53663;42.676;23.238;2022-12-10T04:39:22;9.79;84.67
66752;SHT31;53663;42.676;23.238;2022-12-10T04:41:49;9.96;84.74
66752;SHT31;53663;42.676;23.238;2022-12-10T04:44:15;9.89;84.92
66752;SHT31;53663;42.676;23.238;2022-12-10T04:46:41;9.66;85.58
66752;SHT31;53663;42.676;23.238;2022-12-10T04:49:06;9.41;86.64
66752;SHT31;53663;42.676;23.238;2022-12-10T04:51:32;9.52;86.41
66752;SHT31;53663;42.676;23.238;2022-12-10T04:53:58;9.69;86.50
66752;SHT31;53663;42.676;23.238;2022-12-10T04:56:24;9.79;85.78
66752;SHT31;53663;42.676;23.238;2022-12-10T04:58:50;9.76;85.81
66752;SHT31;53663;42.676;23.238;2022-12-10T05:01:15;9.80;85.94
66752;SHT31;53663;42.676;23.238;2022-12-10T05:03:44;9.85;86.00
66752;SHT31;53663;42.676;23.238;2022-12-10T05:06:12;9.96;85.68
66752;SHT31;53663;42.676;23.238;2022-12-10T05:08:39;9.91;85.29
66752;SHT31;53663;42.676;23.238;2022-12-10T05:11:08;9.83;85.43
66752;SHT31;53663;42.676;23.238;2022-12-10T05:13:34;9.56;86.21
66752;SHT31;53663;42.676;23.238;2022-12-10T05:16:04;9.66;85.57
66752;SHT31;53663;42.676;23.238;2022-12-10T05:18:31;9.60;86.02
66752;SHT31;53663;42.676;23.238;2022-12-10T05:21:01;9.72;85.98
66752;SHT31;53663;42.676;23.238;2022-12-10T05:23:26;9.83;85.40
66752;SHT31;53663;42.676;23.238;2022-12-10T05:25:59;9.86;85.00
66752;SHT31;53663;42.676;23.238;2022-12-10T05:28:25;9.78;85.27
66752;SHT31;53663;42.676;23.238;2022-12-10T05:30:50;9.93;84.86
66752;SHT31;53663;42.676;23.238;2022-12-10T05:33:17;9.87;84.99
66752;SHT31;53663;42.676;23.238;2022-12-10T05:35:43;9.66;85.57
66752;SHT31;53663;42.676;23.238;2022-12-10T05:38:08;9.82;85.26
66752;SHT31;53663;42.676;23.238;2022-12-10T05:40:36;9.86;84.98
66752;SHT31;53663;42.676;23.238;2022-12-10T05:43:02;9.87;85.18
66752;SHT31;53663;42.676;23.238;2022-12-10T05:45:28;9.86;85.36
66752;SHT31;53663;42.676;23.238;2022-12-10T05:47:54;9.86;85.37
66752;SHT31;53663;42.676;23.238;2022-12-10T05:50:19;9.76;85.73
66752;SHT31;53663;42.676;23.238;2022-12-10T05:52:45;9.70;85.89
66752;SHT31;53663;42.676;23.238;2022-12-10T05:55:10;9.31;86.92
66752;SHT31;53663;42.676;23.238;2022-12-10T05:57:37;9.36;87.20
66752;SHT31;53663;42.676;23.238;2022-12-10T06:00:05;9.43;87.13
66752;SHT31;53663;42.676;23.238;2022-12-10T06:02:37;9.45;87.17
66752;SHT31;53663;42.676;23.238;2022-12-10T06:05:03;9.41;87.44
66752;SHT31;53663;42.676;23.238;2022-12-10T06:07:29;9.38;87.66
66752;SHT31;53663;42.676;23.238;2022-12-10T06:09:55;9.43;87.86
66752;SHT31;53663;42.676;23.238;2022-12-10T06:12:21;9.52;87.50
66752;SHT31;53663;42.676;23.238;2022-12-10T06:14:46;9.63;87.35
66752;SHT31;53663;42.676;23.238;2022-12-10T06:17:12;9.66;86.81
66752;SHT31;53663;42.676;23.238;2022-12-10T06:19:38;9.59;87.07
66752;SHT31;53663;42.676;23.238;2022-12-10T06:22:03;9.49;87.40
66752;SHT31;53663;42.676;23.238;2022-12-10T06:24:29;9.48;87.60
66752;SHT31;53663;42.676;23.238;2022-12-10T06:26:55;9.35;87.86
66752;SHT31;53663;42.676;23.238;2022-12-10T06:29:22;9.58;87.52
66752;SHT31;53663;42.676;23.238;2022-12-10T06:31:47;9.38;88.04
66752;SHT31;53663;42.676;23.238;2022-12-10T06:34:13;9.12;89.14
66752;SHT31;53663;42.676;23.238;2022-12-10T06:36:38;9.30;89.06
66752;SHT31;53663;42.676;23.238;2022-12-10T06:39:04;9.22;89.28
66752;SHT31;53663;42.676;23.238;2022-12-10T06:41:29;9.35;89.16
66752;SHT31;53663;42.676;23.238;2022-12-10T06:43:55;9.34;88.93
66752;SHT31;53663;42.676;23.238;2022-12-10T06:46:24;9.35;88.92
66752;SHT31;53663;42.676;23.238;2022-12-10T06:48:51;9.49;88.84
66752;SHT31;53663;42.676;23.238;2022-12-10T06:51:17;9.63;88.65
66752;SHT31;53663;42.676;23.238;2022-12-10T06:53:43;9.79;88.39
66752;SHT31;53663;42.676;23.238;2022-12-10T06:56:13;9.78;88.19
66752;SHT31;53663;42.676;23.238;2022-12-10T06:58:39;9.79;88.39
66752;SHT31;53663;42.676;23.238;2022-12-10T07:01:08;9.89;88.12
66752;SHT31;53663;42.676;23.238;2022-12-10T07:03:34;9.70;88.60
66752;SHT31;53663;42.676;23.238;2022-12-10T07:06:00;9.89;88.41
66752;SHT31;53663;42.676;23.238;2022-12-10T07:08:26;9.89;88.17
66752;SHT31;53663;42.676;23.238;2022-12-10T07:10:52;9.96;88.07
66752;SHT31;53663;42.676;23.238;2022-12-10T07:13:17;9.90;88.09
66752;SHT31;53663;42.676;23.238;2022-12-10T07:15:43;10.07;87.78
66752;SHT31;53663;42.676;23.238;2022-12-10T07:18:08;10.07;87.60
66752;SHT31;53663;42.676;23.238;2022-12-10T07:20:34;9.86;88.04
66752;SHT31;53663;42.676;23.238;2022-12-10T07:22:59;9.94;88.14
66752;SHT31;53663;42.676;23.238;2022-12-10T07:25:25;10.03;88.21
66752;SHT31;53663;42.676;23.238;2022-12-10T07:27:50;10.11;87.94
66752;SHT31;53663;42.676;23.238;2022-12-10T07:30:16;10.27;86.70
66752;SHT31;53663;42.676;23.238;2022-12-10T07:32:41;10.24;86.81
66752;SHT31;53663;42.676;23.238;2022-12-10T07:35:07;10.11;87.27
66752;SHT31;53663;42.676;23.238;2022-12-10T07:37:33;10.13;87.62
66752;SHT31;53663;42.676;23.238;2022-12-10T07:39:59;10.21;87.29
66752;SHT31;53663;42.676;23.238;2022-12-10T07:42:24;10.22;87.51
66752;SHT31;53663;42.676;23.238;2022-12-10T07:44:50;10.33;87.54
66752;SHT31;53663;42.676;23.238;2022-12-10T07:47:16;10.30;87.07
66752;SHT31;53663;42.676;23.238;2022-12-10T07:49:41;10.17;87.13
66752;SHT31;53663;42.676;23.238;2022-12-10T07:52:08;10.22;87.36
66752;SHT31;53663;42.676;23.238;2022-12-10T07:54:35;10.31;87.54
66752;SHT31;53663;42.676;23.238;2022-12-10T07:57:00;10.37;87.90
66752;SHT31;53663;42.676;23.238;2022-12-10T07:59:26;10.40;87.03
66752;SHT31;53663;42.676;23.238;2022-12-10T08:01:52;10.49;87.72
66752;SHT31;53663;42.676;23.238;2022-12-10T08:04:18;10.55;86.73
66752;SHT31;53663;42.676;23.238;2022-12-10T08:06:43;10.58;86.88
66752;SHT31;53663;42.676;23.238;2022-12-10T08:09:09;10.47;87.20
66752;SHT31;53663;42.676;23.238;2022-12-10T08:11:35;10.64;86.97
66752;SHT31;53663;42.676;23.238;2022-12-10T08:14:01;10.57;86.36
66752;SHT31;53663;42.676;23.238;2022-12-10T08:16:28;10.58;85.75
66752;SHT31;53663;42.676;23.238;2022-12-10T08:18:56;10.79;84.65
66752;SHT31;53663;42.676;23.238;2022-12-10T08:21:24;10.82;84.79
66752;SHT31;53663;42.676;23.238;2022-12-10T08:23:50;10.92;85.48
66752;SHT31;53663;42.676;23.238;2022-12-10T08:26:18;11.09;86.00
66752;SHT31;53663;42.676;23.238;2022-12-10T08:28:44;11.10;85.37
66752;SHT31;53663;42.676;23.238;2022-12-10T08:31:11;11.31;84.49
66752;SHT31;53663;42.676;23.238;2022-12-10T08:33:38;11.53;84.20
66752;SHT31;53663;42.676;23.238;2022-12-10T08:36:05;11.67;83.22
66752;SHT31;53663;42.676;23.238;2022-12-10T08:38:31;11.71;83.19
66752;SHT31;53663;42.676;23.238;2022-12-10T08:40:57;11.88;82.35
66752;SHT31;53663;42.676;23.238;2022-12-10T08:43:22;12.02;81.90
66752;SHT31;53663;42.676;23.238;2022-12-10T08:45:48;12.06;81.83
66752;SHT31;53663;42.676;23.238;2022-12-10T08:48:15;12.05;81.82
66752;SHT31;53663;42.676;23.238;2022-12-10T08:50:40;12.39;81.01
66752;SHT31;53663;42.676;23.238;2022-12-10T08:53:06;12.54;81.10
66752;SHT31;53663;42.676;23.238;2022-12-10T08:55:32;12.74;80.03
66752;SHT31;53663;42.676;23.238;2022-12-10T08:57:58;12.81;79.03
66752;SHT31;53663;42.676;23.238;2022-12-10T09:00:24;12.63;78.20
66752;SHT31;53663;42.676;23.238;2022-12-10T09:02:49;12.43;80.56
66752;SHT31;53663;42.676;23.238;2022-12-10T09:05:15;12.54;80.18
66752;SHT31;53663;42.676;23.238;2022-12-10T09:07:40;12.53;80.26
66752;SHT31;53663;42.676;23.238;2022-12-10T09:10:06;12.67;81.69
66752;SHT31;53663;42.676;23.238;2022-12-10T09:12:33;12.90;80.08
66752;SHT31;53663;42.676;23.238;2022-12-10T09:14:59;13.04;80.10
66752;SHT31;53663;42.676;23.238;2022-12-10T09:17:25;13.19;79.21
66752;SHT31;53663;42.676;23.238;2022-12-10T09:19:50;13.28;79.16
66752;SHT31;53663;42.676;23.238;2022-12-10T09:22:16;13.47;78.11
66752;SHT31;53663;42.676;23.238;2022-12-10T09:24:41;13.74;76.40
66752;SHT31;53663;42.676;23.238;2022-12-10T09:27:07;13.88;76.21
66752;SHT31;53663;42.676;23.238;2022-12-10T09:29:32;14.05;76.27
66752;SHT31;53663;42.676;23.238;2022-12-10T09:31:58;14.14;76.12
66752;SHT31;53663;42.676;23.238;2022-12-10T09:34:23;14.51;74.31
66752;SHT31;53663;42.676;23.238;2022-12-10T09:36:49;14.21;73.46
66752;SHT31;53663;42.676;23.238;2022-12-10T09:39:14;14.05;75.53
66752;SHT31;53663;42.676;23.238;2022-12-10T09:42:05;14.28;73.89
66752;SHT31;53663;42.676;23.238;2022-12-10T09:44:41;14.20;73.33
66752;SHT31;53663;42.676;23.238;2022-12-10T09:47:09;14.17;72.78
66752;SHT31;53663;42.676;23.238;2022-12-10T09:52:26;14.45;73.48
66752;SHT31;53663;42.676;23.238;2022-12-10T09:54:58;14.58;73.30
66752;SHT31;53663;42.676;23.238;2022-12-10T09:57:38;14.76;70.90
66752;SHT31;53663;42.676;23.238;2022-12-10T10:02:56;14.45;72.58
66752;SHT31;53663;42.676;23.238;2022-12-10T10:05:41;14.58;73.20
66752;SHT31;53663;42.676;23.238;2022-12-10T10:08:14;14.55;72.52
66752;SHT31;53663;42.676;23.238;2022-12-10T10:10:44;14.58;72.14
66752;SHT31;53663;42.676;23.238;2022-12-10T10:16:11;14.35;73.45
66752;SHT31;53663;42.676;23.238;2022-12-10T10:18:41;14.49;72.09
66752;SHT31;53663;42.676;23.238;2022-12-10T10:21:21;14.53;72.76
66752;SHT31;53663;42.676;23.238;2022-12-10T10:23:47;14.59;72.09
66752;SHT31;53663;42.676;23.238;2022-12-10T10:26:13;14.46;71.77
66752;SHT31;53663;42.676;23.238;2022-12-10T10:28:40;14.42;73.00
66752;SHT31;53663;42.676;23.238;2022-12-10T10:31:19;14.44;73.46
66752;SHT31;53663;42.676;23.238;2022-12-10T10:33:57;14.44;71.99
66752;SHT31;53663;42.676;23.238;2022-12-10T10:36:36;14.55;72.79
66752;SHT31;53663;42.676;23.238;2022-12-10T10:39:11;14.31;72.75
66752;SHT31;53663;42.676;23.238;2022-12-10T10:41:45;13.90;73.97
66752;SHT31;53663;42.676;23.238;2022-12-10T10:44:16;14.15;72.78
66752;SHT31;53663;42.676;23.238;2022-12-10T10:46:45;14.31;72.12
66752;SHT31;53663;42.676;23.238;2022-12-10T10:49:32;14.41;73.22
66752;SHT31;53663;42.676;23.238;2022-12-10T10:52:05;14.38;72.19
66752;SHT31;53663;42.676;23.238;2022-12-10T10:56:57;14.49;72.03
66752;SHT31;53663;42.676;23.238;2022-12-10T10:59:34;14.59;72.13
66752;SHT31;53663;42.676;23.238;2022-12-10T11:02:29;14.82;71.20
66752;SHT31;53663;42.676;23.238;2022-12-10T11:04:56;14.77;72.37
66752;SHT31;53663;42.676;23.238;2022-12-10T11:07:35;14.76;72.34
66752;SHT31;53663;42.676;23.238;2022-12-10T11:10:03;14.86;72.31
66752;SHT31;53663;42.676;23.238;2022-12-10T11:12:39;14.99;71.31
66752;SHT31;53663;42.676;23.238;2022-12-10T11:17:58;15.11;70.18
66752;SHT31;53663;42.676;23.238;2022-12-10T11:20:33;15.10;70.74
66752;SHT31;53663;42.676;23.238;2022-12-10T11:23:01;15.08;70.11
66752;SHT31;53663;42.676;23.238;2022-12-10T11:25:57;15.11;70.43
66752;SHT31;53663;42.676;23.238;2022-12-10T11:34:19;15.20;70.64
66752;SHT31;53663;42.676;23.238;2022-12-10T11:50:51;15.17;70.65
66752;SHT31;53663;42.676;23.238;2022-12-10T11:56:28;15.04;70.11
66752;SHT31;53663;42.676;23.238;2022-12-10T11:59:05;15.08;70.26
66752;SHT31;53663;42.676;23.238;2022-12-10T12:04:28;15.26;69.77
66752;SHT31;53663;42.676;23.238;2022-12-10T12:06:59;15.31;69.58
66752;SHT31;53663;42.676;23.238;2022-12-10T12:15:03;15.50;68.29
66752;SHT31;53663;42.676;23.238;2022-12-10T12:17:38;15.48;67.85
66752;SHT31;53663;42.676;23.238;2022-12-10T12:22:48;14.73;71.00
66752;SHT31;53663;42.676;23.238;2022-12-10T12:25:28;14.55;71.58
66752;SHT31;53663;42.676;23.238;2022-12-10T12:28:09;14.36;72.08
66752;SHT31;53663;42.676;23.238;2022-12-10T12:30:37;14.38;71.40
66752;SHT31;53663;42.676;23.238;2022-12-10T12:35:48;14.22;71.92
66752;SHT31;53663;42.676;23.238;2022-12-10T12:44:33;14.05;73.26
66752;SHT31;53663;42.676;23.238;2022-12-10T12:47:44;14.07;72.70
66752;SHT31;53663;42.676;23.238;2022-12-10T12:53:22;13.66;74.35
66752;SHT31;53663;42.676;23.238;2022-12-10T12:56:03;13.57;74.70
66752;SHT31;53663;42.676;23.238;2022-12-10T13:04:04;13.71;74.52
66752;SHT31;53663;42.676;23.238;2022-12-10T13:06:34;13.69;74.78
66752;SHT31;53663;42.676;23.238;2022-12-10T13:11:42;13.88;74.14
66752;SHT31;53663;42.676;23.238;2022-12-10T13:42:38;13.63;75.71
66752;SHT31;53663;42.676;23.238;2022-12-10T13:45:24;13.40;76.89
66752;SHT31;53663;42.676;23.238;2022-12-10T13:54:11;13.63;76.78
66752;SHT31;53663;42.676;23.238;2022-12-10T13:56:57;13.69;76.39
66752;SHT31;53663;42.676;23.238;2022-12-10T14:02:42;13.39;76.69
66752;SHT31;53663;42.676;23.238;2022-12-10T14:05:19;13.57;76.14
66752;SHT31;53663;42.676;23.238;2022-12-10T14:07:48;13.59;75.73
66752;SHT31;53663;42.676;23.238;2022-12-10T14:10:17;13.49;76.19
66752;SHT31;53663;42.676;23.238;2022-12-10T14:12:45;13.22;77.34
66752;SHT31;53663;42.676;23.238;2022-12-10T14:15:23;13.28;77.58
66752;SHT31;53663;42.676;23.238;2022-12-10T14:17:52;13.26;76.67
66752;SHT31;53663;42.676;23.238;2022-12-10T14:20:22;13.45;76.26
66752;SHT31;53663;42.676;23.238;2022-12-10T14:23:03;13.56;75.98
66752;SHT31;53663;42.676;23.238;2022-12-10T14:25:47;13.70;75.26
66752;SHT31;53663;42.676;23.238;2022-12-10T14:28:14;13.73;75.27
66752;SHT31;53663;42.676;23.238;2022-12-10T14:30:46;13.77;75.23
66752;SHT31;53663;42.676;23.238;2022-12-10T14:33:16;13.76;75.14
66752;SHT31;53663;42.676;23.238;2022-12-10T14:35:46;13.83;75.35
66752;SHT31;53663;42.676;23.238;2022-12-10T14:38:22;13.88;75.37
66752;SHT31;53663;42.676;23.238;2022-12-10T14:40:48;13.59;75.70
66752;SHT31;53663;42.676;23.238;2022-12-10T14:43:21;13.70;75.49
66752;SHT31;53663;42.676;23.238;2022-12-10T14:45:58;13.70;75.72
66752;SHT31;53663;42.676;23.238;2022-12-10T14:48:25;13.91;74.30
66752;SHT31;53663;42.676;23.238;2022-12-10T14:50:50;14.01;73.83
66752;SHT31;53663;42.676;23.238;2022-12-10T14:53:27;13.86;74.64
66752;SHT31;53663;42.676;23.238;2022-12-10T14:56:07;13.83;75.31
66752;SHT31;53663;42.676;23.238;2022-12-10T14:58:47;13.80;75.74
66752;SHT31;53663;42.676;23.238;2022-12-10T15:01:26;13.86;75.73
66752;SHT31;53663;42.676;23.238;2022-12-10T15:03:52;13.91;75.44
66752;SHT31;53663;42.676;23.238;2022-12-10T15:06:18;13.87;75.52
66752;SHT31;53663;42.676;23.238;2022-12-10T15:08:46;13.81;75.63
66752;SHT31;53663;42.676;23.238;2022-12-10T15:11:16;13.71;75.54
66752;SHT31;53663;42.676;23.238;2022-12-10T15:13:46;13.39;76.03
66752;SHT31;53663;42.676;23.238;2022-12-10T15:16:19;13.52;76.40
66752;SHT31;53663;42.676;23.238;2022-12-10T15:18:45;13.53;75.75
66752;SHT31;53663;42.676;23.238;2022-12-10T15:21:20;13.60;74.99
66752;SHT31;53663;42.676;23.238;2022-12-10T15:23:47;13.69;75.49
66752;SHT31;53663;42.676;23.238;2022-12-10T15:28:48;13.46;76.35
66752;SHT31;53663;42.676;23.238;2022-12-10T15:33:59;13.50;76.78
66752;SHT31;53663;42.676;23.238;2022-12-10T15:36:37;13.65;76.51
66752;SHT31;53663;42.676;23.238;2022-12-10T15:41:54;13.60;76.46
66752;SHT31;53663;42.676;23.238;2022-12-10T15:47:23;13.39;77.02
66752;SHT31;53663;42.676;23.238;2022-12-10T15:49:51;13.35;77.37
66752;SHT31;53663;42.676;23.238;2022-12-10T15:52:25;13.35;77.11
66752;SHT31;53663;42.676;23.238;2022-12-10T15:54:53;13.35;77.25
66752;SHT31;53663;42.676;23.238;2022-12-10T15:57:36;13.49;77.36
66752;SHT31;53663;42.676;23.238;2022-12-10T16:00:19;13.55;76.99
66752;SHT31;53663;42.676;23.238;2022-12-10T16:05:25;13.46;76.90
66752;SHT31;53663;42.676;23.238;2022-12-10T16:07:53;13.23;77.15
66752;SHT31;53663;42.676;23.238;2022-12-10T16:10:20;13.18;77.41
66752;SHT31;53663;42.676;23.238;2022-12-10T16:12:49;13.22;77.12
66752;SHT31;53663;42.676;23.238;2022-12-10T16:15:18;13.19;77.21
66752;SHT31;53663;42.676;23.238;2022-12-10T16:17:45;13.29;77.44
66752;SHT31;53663;42.676;23.238;2022-12-10T16:22:46;12.91;77.57
66752;SHT31;53663;42.676;23.238;2022-12-10T16:25:12;12.64;78.96
66752;SHT31;53663;42.676;23.238;2022-12-10T16:27:38;12.81;79.32
66752;SHT31;53663;42.676;23.238;2022-12-10T16:32:39;13.01;78.65
66752;SHT31;53663;42.676;23.238;2022-12-10T16:35:05;13.08;78.34
66752;SHT31;53663;42.676;23.238;2022-12-10T16:37:30;13.12;78.55
66752;SHT31;53663;42.676;23.238;2022-12-10T16:39:56;13.11;78.75
66752;SHT31;53663;42.676;23.238;2022-12-10T16:42:21;13.15;78.75
66752;SHT31;53663;42.676;23.238;2022-12-10T16:44:47;13.18;78.90
66752;SHT31;53663;42.676;23.238;2022-12-10T16:47:12;13.18;79.10
66752;SHT31;53663;42.676;23.238;2022-12-10T16:49:38;13.22;78.70
66752;SHT31;53663;42.676;23.238;2022-12-10T16:52:04;13.11;79.24
66752;SHT31;53663;42.676;23.238;2022-12-10T16:54:30;13.04;79.68
66752;SHT31;53663;42.676;23.238;2022-12-10T16:56:55;12.88;80.35
66752;SHT31;53663;42.676;23.238;2022-12-10T16:59:21;12.91;80.27
66752;SHT31;53663;42.676;23.238;2022-12-10T17:01:46;12.92;80.31
66752;SHT31;53663;42.676;23.238;2022-12-10T17:04:12;12.91;80.38
66752;SHT31;53663;42.676;23.238;2022-12-10T17:06:37;12.90;80.50
66752;SHT31;53663;42.676;23.238;2022-12-10T17:09:03;12.77;81.02
66752;SHT31;53663;42.676;23.238;2022-12-10T17:11:38;12.80;80.61
66752;SHT31;53663;42.676;23.238;2022-12-10T17:14:21;12.85;80.87
66752;SHT31;53663;42.676;23.238;2022-12-10T17:16:47;12.80;80.73
66752;SHT31;53663;42.676;23.238;2022-12-10T17:19:13;12.80;81.11
66752;SHT31;53663;42.676;23.238;2022-12-10T17:21:39;12.76;81.00
66752;SHT31;53663;42.676;23.238;2022-12-10T17:24:04;12.54;81.82
66752;SHT31;53663;42.676;23.238;2022-12-10T17:26:31;12.43;82.09
66752;SHT31;53663;42.676;23.238;2022-12-10T17:29:10;12.68;81.04
66752;SHT31;53663;42.676;23.238;2022-12-10T17:31:36;12.61;80.87
66752;SHT31;53663;42.676;23.238;2022-12-10T17:34:02;12.40;82.02
66752;SHT31;53663;42.676;23.238;2022-12-10T17:36:27;12.25;83.06
66752;SHT31;53663;42.676;23.238;2022-12-10T17:38:53;12.28;82.99
66752;SHT31;53663;42.676;23.238;2022-12-10T17:41:19;12.36;82.82
66752;SHT31;53663;42.676;23.238;2022-12-10T17:43:44;12.30;83.35
66752;SHT31;53663;42.676;23.238;2022-12-10T17:46:11;12.46;82.79
66752;SHT31;53663;42.676;23.238;2022-12-10T17:48:36;12.51;82.53
66752;SHT31;53663;42.676;23.238;2022-12-10T17:51:02;12.47;82.66
66752;SHT31;53663;42.676;23.238;2022-12-10T17:53:28;12.47;82.81
66752;SHT31;53663;42.676;23.238;2022-12-10T17:55:58;12.53;82.65
66752;SHT31;53663;42.676;23.238;2022-12-10T17:58:25;12.53;82.61
66752;SHT31;53663;42.676;23.238;2022-12-10T18:00:51;12.54;82.58